createdAt,value
2022-08-05T00:02:22.395Z,18.57
2022-08-05T00:04:55.247Z,18.57
2022-08-05T00:07:59.161Z,18.65
2022-08-05T00:10:09.280Z,18.62
2022-08-05T00:12:35.886Z,18.59
2022-08-05T00:15:56.162Z,18.56
2022-08-05T00:18:09.285Z,18.50
2022-08-05T00:20:48.979Z,18.52
2022-08-05T00:23:15.711Z,18.47
2022-08-05T00:25:46.036Z,18.51
2022-08-05T00:28:13.532Z,18.53
2022-08-05T00:30:41.228Z,18.57
2022-08-05T00:33:15.548Z,18.60
2022-08-05T00:36:14.910Z,18.61
2022-08-05T00:38:43.671Z,18.62
2022-08-05T00:41:11.732Z,18.29
2022-08-05T00:43:47.034Z,18.09
2022-08-05T00:46:16.408Z,17.92
2022-08-05T00:48:51.401Z,17.86
2022-08-05T00:51:51.618Z,17.91
2022-08-05T00:54:06.351Z,17.87
2022-08-05T00:56:32.996Z,17.84
2022-08-05T00:59:00.212Z,17.89
2022-08-05T01:01:42.026Z,17.92
2022-08-05T01:04:13.706Z,17.94
2022-08-05T01:06:40.990Z,17.92
2022-08-05T01:09:10.404Z,17.92
2022-08-05T01:11:39.523Z,17.99
2022-08-05T01:14:17.992Z,17.95
2022-08-05T01:17:03.182Z,17.97
2022-08-05T01:20:01.137Z,18.00
2022-08-05T01:22:40.742Z,17.95
2022-08-05T01:25:16.348Z,18.01
2022-08-05T01:28:00.562Z,18.04
2022-08-05T01:30:34.661Z,17.95
2022-08-05T01:33:06.140Z,17.79
2022-08-05T01:35:52.214Z,17.80
2022-08-05T01:38:24.688Z,17.64
2022-08-05T01:40:58.708Z,17.59
2022-08-05T01:43:28.008Z,17.50
2022-08-05T01:45:57.039Z,17.49
2022-08-05T01:48:27.181Z,17.54
2022-08-05T01:50:56.466Z,17.60
2022-08-05T01:53:54.604Z,17.65
2022-08-05T01:58:09.845Z,17.76
2022-08-05T01:59:04.133Z,17.81
2022-08-05T02:01:38.779Z,17.89
2022-08-05T02:04:10.173Z,17.85
2022-08-05T02:06:39.017Z,17.89
2022-08-05T02:09:06.907Z,17.81
2022-08-05T02:12:10.181Z,17.76
2022-08-05T02:15:22.142Z,17.68
2022-08-05T02:18:27.900Z,17.62
2022-08-05T02:21:14.856Z,17.63
2022-08-05T02:23:46.020Z,17.66
2022-08-05T02:26:19.252Z,17.71
2022-08-05T02:28:49.958Z,17.79
2022-08-05T02:31:24.574Z,17.79
2022-08-05T02:34:01.126Z,17.86
2022-08-05T02:36:31.518Z,17.86
2022-08-05T02:39:01.693Z,17.90
2022-08-05T02:41:43.405Z,17.87
2022-08-05T02:44:18.087Z,17.85
2022-08-05T02:46:58.376Z,17.85
2022-08-05T02:49:35.855Z,17.87
2022-08-05T02:52:07.760Z,17.83
2022-08-05T02:54:37.427Z,17.80
2022-08-05T02:58:10.840Z,17.82
2022-08-05T02:59:57.601Z,17.97
2022-08-05T03:02:31.896Z,18.12
2022-08-05T03:04:59.775Z,18.17
2022-08-05T03:07:56.568Z,18.19
2022-08-05T03:10:22.011Z,18.18
2022-08-05T03:12:54.171Z,18.08
2022-08-05T03:15:23.661Z,18.02
2022-08-05T03:17:54.264Z,17.90
2022-08-05T03:20:23.673Z,17.81
2022-08-05T03:22:52.185Z,17.67
2022-08-05T03:25:32.402Z,17.63
2022-08-05T03:28:08.794Z,17.63
2022-08-05T03:30:36.534Z,17.72
2022-08-05T03:33:05.705Z,17.70
2022-08-05T03:35:33.717Z,17.66
2022-08-05T03:38:01.554Z,17.60
2022-08-05T03:40:31.863Z,17.54
2022-08-05T03:42:59.630Z,17.38
2022-08-05T03:45:57.484Z,17.28
2022-08-05T03:48:27.502Z,17.01
2022-08-05T03:52:37.396Z,16.86
2022-08-05T03:56:01.329Z,16.79
2022-08-05T03:56:47.794Z,16.72
2022-08-05T03:59:20.371Z,16.69
2022-08-05T04:01:51.032Z,16.80
2022-08-05T04:04:21.516Z,17.00
2022-08-05T04:06:51.073Z,17.22
2022-08-05T04:09:25.821Z,17.38
2022-08-05T04:11:54.341Z,17.57
2022-08-05T04:14:30.250Z,17.69
2022-08-05T04:16:59.584Z,17.82
2022-08-05T04:19:28.434Z,17.93
2022-08-05T04:22:10.216Z,18.01
2022-08-05T04:24:43.965Z,18.05
2022-08-05T04:27:13.153Z,18.09
2022-08-05T04:29:40.234Z,18.08
2022-08-05T04:32:07.945Z,18.09
2022-08-05T04:34:38.523Z,18.14
2022-08-05T04:37:09.758Z,18.16
2022-08-05T04:39:37.555Z,18.21
2022-08-05T04:42:06.242Z,18.29
2022-08-05T04:44:33.206Z,18.28
2022-08-05T04:47:00.103Z,18.34
2022-08-05T04:50:01.022Z,18.39
2022-08-05T04:52:24.070Z,18.49
2022-08-05T04:54:54.721Z,18.62
2022-08-05T04:57:29.016Z,18.70
2022-08-05T04:59:57.308Z,18.80
2022-08-05T05:02:36.357Z,18.92
2022-08-05T05:05:16.908Z,19.08
2022-08-05T05:07:56.194Z,19.30
2022-08-05T05:10:23.522Z,19.55
2022-08-05T05:12:50.562Z,19.78
2022-08-05T05:15:56.157Z,20.04
2022-08-05T05:18:05.004Z,20.41
2022-08-05T05:20:32.436Z,20.65
2022-08-05T05:23:08.147Z,20.93
2022-08-05T05:25:40.902Z,21.22
2022-08-05T05:28:08.712Z,21.44
2022-08-05T05:30:36.704Z,21.66
2022-08-05T05:33:14.178Z,21.85
2022-08-05T05:35:47.429Z,21.94
2022-08-05T05:38:27.216Z,21.83
2022-08-05T05:40:55.840Z,21.78
2022-08-05T05:43:57.193Z,21.94
2022-08-05T05:46:17.815Z,22.01
2022-08-05T05:48:48.197Z,22.07
2022-08-05T05:51:20.042Z,22.10
2022-08-05T05:53:58.147Z,22.27
2022-08-05T05:56:33.110Z,22.70
2022-08-05T05:59:05.325Z,23.16
2022-08-05T06:01:37.599Z,23.52
2022-08-05T06:04:14.505Z,23.82
2022-08-05T06:06:47.788Z,24.06
2022-08-05T06:09:24.616Z,24.33
2022-08-05T06:12:01.014Z,24.54
2022-08-05T06:14:34.805Z,24.82
2022-08-05T06:17:22.446Z,25.07
2022-08-05T06:19:56.567Z,25.27
2022-08-05T06:22:33.602Z,25.39
2022-08-05T06:25:59.324Z,25.50
2022-08-05T06:28:11.537Z,25.52
2022-08-05T06:30:36.754Z,25.47
2022-08-05T06:33:03.424Z,25.53
2022-08-05T06:36:07.066Z,25.52
2022-08-05T06:38:17.385Z,25.38
2022-08-05T06:41:03.475Z,25.20
2022-08-05T06:43:58.516Z,25.21
2022-08-05T06:46:17.421Z,25.22
2022-08-05T06:48:54.600Z,25.34
2022-08-05T06:51:29.416Z,25.23
2022-08-05T06:54:02.002Z,25.28
2022-08-05T06:56:30.211Z,25.15
2022-08-05T06:59:00.540Z,25.29
2022-08-05T07:01:27.630Z,25.16
2022-08-05T07:04:02.271Z,25.15
2022-08-05T07:06:29.627Z,25.29
2022-08-05T07:08:56.267Z,25.31
2022-08-05T07:11:27.917Z,25.58
2022-08-05T07:14:20.180Z,25.63
2022-08-05T07:17:56.964Z,25.70
2022-08-05T07:22:28.890Z,25.61
2022-08-05T07:25:22.182Z,25.49
2022-08-05T07:27:58.374Z,25.34
2022-08-05T07:30:34.490Z,25.32
2022-08-05T07:33:09.590Z,25.32
2022-08-05T07:36:02.053Z,25.21
2022-08-05T07:38:33.910Z,25.06
2022-08-05T07:42:07.027Z,25.13
2022-08-05T07:44:00.541Z,25.19
2022-08-05T07:46:30.974Z,25.26
2022-08-05T07:49:02.589Z,25.43
2022-08-05T07:51:37.159Z,25.43
2022-08-05T07:54:08.554Z,25.47
2022-08-05T07:57:00.887Z,25.49
2022-08-05T07:59:38.967Z,25.55
2022-08-05T08:02:10.677Z,25.79
2022-08-05T08:04:47.927Z,25.57
2022-08-05T08:07:15.628Z,25.17
2022-08-05T08:09:43.039Z,24.81
2022-08-05T08:12:27.243Z,25.23
2022-08-05T08:14:57.067Z,25.70
2022-08-05T08:17:28.906Z,26.06
2022-08-05T08:20:21.053Z,26.27
2022-08-05T08:22:43.554Z,26.53
2022-08-05T08:25:16.471Z,26.64
2022-08-05T08:27:47.827Z,26.67
2022-08-05T08:30:29.475Z,27.02
2022-08-05T08:33:04.554Z,27.06
2022-08-05T08:35:41.213Z,27.34
2022-08-05T08:38:11.855Z,27.59
2022-08-05T08:40:46.732Z,27.73
2022-08-05T08:45:16.227Z,27.57
2022-08-05T08:46:06.254Z,27.45
2022-08-05T08:49:03.251Z,27.64
2022-08-05T08:52:03.821Z,27.56
2022-08-05T08:54:18.297Z,27.83
2022-08-05T08:56:47.675Z,27.96
2022-08-05T08:59:20.740Z,28.26
2022-08-05T09:01:57.591Z,28.52
2022-08-05T09:04:30.674Z,28.70
2022-08-05T09:06:58.370Z,28.91
2022-08-05T09:09:26.016Z,28.99
2022-08-05T09:12:05.972Z,29.24
2022-08-05T09:14:59.203Z,29.42
2022-08-05T09:17:41.417Z,29.83
2022-08-05T09:20:11.929Z,30.02
2022-08-05T09:23:07.783Z,30.35
2022-08-05T09:25:59.980Z,30.25
2022-08-05T09:28:32.537Z,29.51
2022-08-05T09:31:43.508Z,29.19
2022-08-05T09:34:01.315Z,29.68
2022-08-05T09:36:45.802Z,30.11
2022-08-05T09:39:41.187Z,30.40
2022-08-05T09:42:17.575Z,30.37
2022-08-05T09:44:56.446Z,30.38
2022-08-05T09:47:26.072Z,30.34
2022-08-05T09:50:02.516Z,29.96
2022-08-05T09:52:31.075Z,30.00
2022-08-05T09:54:57.880Z,29.89
2022-08-05T09:57:33.763Z,30.32
2022-08-05T10:00:07.704Z,30.46
2022-08-05T10:02:37.708Z,30.60
2022-08-05T10:05:32.969Z,30.93
2022-08-05T10:08:36.586Z,30.94
2022-08-05T10:10:54.347Z,31.02
2022-08-05T10:13:47.144Z,31.09
2022-08-05T10:16:41.594Z,31.32
2022-08-05T10:19:11.758Z,31.91
2022-08-05T10:21:40.234Z,31.96
2022-08-05T10:24:13.482Z,31.71
2022-08-05T10:26:51.893Z,31.50
2022-08-05T10:29:24.023Z,31.80
2022-08-05T10:32:53.606Z,32.08
2022-08-05T10:35:00.586Z,31.89
2022-08-05T10:37:44.392Z,31.91
2022-08-05T10:40:36.347Z,32.66
2022-08-05T10:43:13.192Z,32.95
2022-08-05T10:45:42.373Z,32.47
2022-08-05T10:48:34.456Z,31.62
2022-08-05T10:51:21.824Z,31.01
2022-08-05T10:54:23.066Z,30.51
2022-08-05T10:56:55.876Z,29.95
2022-08-05T11:00:03.480Z,29.73
2022-08-05T11:02:34.691Z,29.31
2022-08-05T11:05:06.962Z,29.32
2022-08-05T11:08:01.322Z,29.37
2022-08-05T11:10:27.792Z,29.46
2022-08-05T11:13:01.266Z,29.84
2022-08-05T11:16:01.032Z,30.16
2022-08-05T11:18:32.590Z,30.47
2022-08-05T11:21:06.133Z,30.50
2022-08-05T11:24:03.952Z,31.26
2022-08-05T11:26:43.240Z,31.84
2022-08-05T11:29:42.655Z,31.94
2022-08-05T11:32:25.697Z,31.99
2022-08-05T11:34:54.364Z,32.05
2022-08-05T11:38:28.067Z,31.66
2022-08-05T11:41:03.452Z,30.54
2022-08-05T11:44:21.772Z,31.04
2022-08-05T11:47:11.180Z,30.80
2022-08-05T11:49:42.756Z,30.10
2022-08-05T11:52:11.798Z,30.65
2022-08-05T11:54:41.634Z,31.44
2022-08-05T11:57:24.840Z,31.33
2022-08-05T11:59:53.539Z,31.18
2022-08-05T12:02:31.736Z,30.83
2022-08-05T12:05:06.936Z,30.71
2022-08-05T12:08:04.395Z,31.42
2022-08-05T12:10:43.109Z,32.11
2022-08-05T12:13:15.661Z,31.94
2022-08-05T12:15:45.274Z,32.45
2022-08-05T12:18:20.589Z,33.39
2022-08-05T12:20:50.877Z,33.92
2022-08-05T12:23:17.517Z,33.34
2022-08-05T12:25:56.690Z,32.99
2022-08-05T12:28:50.008Z,32.70
2022-08-05T12:31:23.468Z,32.91
2022-08-05T12:34:07.670Z,32.58
2022-08-05T12:36:35.701Z,31.46
2022-08-05T12:39:05.621Z,31.43
2022-08-05T12:41:36.015Z,32.58
2022-08-05T12:44:14.429Z,32.81
2022-08-05T12:46:53.485Z,33.52
2022-08-05T12:49:21.002Z,34.13
2022-08-05T12:52:13.117Z,34.30
2022-08-05T12:54:49.670Z,34.23
2022-08-05T12:57:17.535Z,34.60
2022-08-05T13:01:56.677Z,33.78
2022-08-05T13:02:31.553Z,33.03
2022-08-05T13:04:58.712Z,32.71
2022-08-05T13:07:56.047Z,33.29
2022-08-05T13:10:15.120Z,34.28
2022-08-05T13:12:57.265Z,34.49
2022-08-05T13:15:41.428Z,34.32
2022-08-05T13:18:19.924Z,34.12
2022-08-05T13:20:48.985Z,34.25
2022-08-05T13:23:16.396Z,33.86
2022-08-05T13:25:52.151Z,34.29
2022-08-05T13:28:25.869Z,35.07
2022-08-05T13:30:53.335Z,35.75
2022-08-05T13:34:22.322Z,36.41
2022-08-05T13:36:09.179Z,36.27
2022-08-05T13:38:42.013Z,36.48
2022-08-05T13:41:12.535Z,35.65
2022-08-05T13:43:44.853Z,35.88
2022-08-05T13:46:37.709Z,36.52
2022-08-05T13:49:10.103Z,36.25
2022-08-05T13:51:40.993Z,36.29
2022-08-05T13:54:13.113Z,36.57
2022-08-05T13:56:45.371Z,34.96
2022-08-05T13:59:24.735Z,34.26
2022-08-05T14:01:57.489Z,33.11
2022-08-05T14:04:49.105Z,33.82
2022-08-05T14:07:25.862Z,35.36
2022-08-05T14:10:10.711Z,36.85
2022-08-05T14:12:37.492Z,37.09
2022-08-05T14:16:05.261Z,37.41
2022-08-05T14:17:54.895Z,37.35
2022-08-05T14:20:27.383Z,37.28
2022-08-05T14:22:54.516Z,37.87
2022-08-05T14:25:22.531Z,38.10
2022-08-05T14:27:54.667Z,38.96
2022-08-05T14:30:21.651Z,39.79
2022-08-05T14:32:48.933Z,38.49
2022-08-05T14:35:16.241Z,37.90
2022-08-05T14:37:52.121Z,38.15
2022-08-05T14:40:24.430Z,38.88
2022-08-05T14:42:52.198Z,39.52
2022-08-05T14:45:18.867Z,40.04
2022-08-05T14:48:05.198Z,39.38
2022-08-05T14:50:32.747Z,39.09
2022-08-05T14:53:02.879Z,37.77
2022-08-05T14:55:39.505Z,38.78
2022-08-05T14:58:11.157Z,39.88
2022-08-05T15:00:58.576Z,40.55
2022-08-05T15:03:33.696Z,40.95
2022-08-05T15:06:07.818Z,41.63
2022-08-05T15:08:59.822Z,39.26
2022-08-05T15:11:52.325Z,39.78
2022-08-05T15:14:33.233Z,38.87
2022-08-05T15:17:01.247Z,40.08
2022-08-05T15:19:27.951Z,40.21
2022-08-05T15:21:57.946Z,39.78
2022-08-05T15:24:27.169Z,39.30
2022-08-05T15:26:53.806Z,38.25
2022-08-05T15:29:22.957Z,38.78
2022-08-05T15:31:53.111Z,38.72
2022-08-05T15:34:32.587Z,38.75
2022-08-05T15:37:06.393Z,38.32
2022-08-05T15:40:58.916Z,37.86
2022-08-05T15:42:54.747Z,37.06
2022-08-05T15:45:15.310Z,36.61
2022-08-05T15:47:43.154Z,36.73
2022-08-05T15:50:15.981Z,37.03
2022-08-05T15:52:53.774Z,36.79
2022-08-05T15:56:04.108Z,36.63
2022-08-05T15:58:19.761Z,35.61
2022-08-05T16:00:57.077Z,35.16
2022-08-05T16:03:36.383Z,34.39
2022-08-05T16:06:09.041Z,33.23
2022-08-05T16:08:38.753Z,32.53
2022-08-05T16:11:07.005Z,32.35
2022-08-05T16:13:35.176Z,31.87
2022-08-05T16:16:03.847Z,31.56
2022-08-05T16:18:32.970Z,31.47
2022-08-05T16:21:03.982Z,31.25
2022-08-05T16:23:33.115Z,31.11
2022-08-05T16:26:18.245Z,30.78
2022-08-05T16:28:44.885Z,30.66
2022-08-05T16:31:11.482Z,30.50
2022-08-05T16:33:41.593Z,30.32
2022-08-05T16:36:08.708Z,30.09
2022-08-05T16:38:35.683Z,29.80
2022-08-05T16:42:11.955Z,29.72
2022-08-05T16:43:49.932Z,29.80
2022-08-05T16:46:24.548Z,29.76
2022-08-05T16:48:51.972Z,29.65
2022-08-05T16:51:19.418Z,29.40
2022-08-05T16:54:03.947Z,29.25
2022-08-05T16:56:35.009Z,29.16
2022-08-05T16:59:08.499Z,29.00
2022-08-05T17:01:54.084Z,28.95
2022-08-05T17:04:27.742Z,28.72
2022-08-05T17:07:03.557Z,28.61
2022-08-05T17:09:38.875Z,28.55
2022-08-05T17:12:51.058Z,28.62
2022-08-05T17:15:19.241Z,28.65
2022-08-05T17:17:54.552Z,28.66
2022-08-05T17:20:22.088Z,28.61
2022-08-05T17:22:55.094Z,28.47
2022-08-05T17:25:39.708Z,28.26
2022-08-05T17:28:07.764Z,28.20
2022-08-05T17:30:50.610Z,28.12
2022-08-05T17:33:19.987Z,28.11
2022-08-05T17:36:08.983Z,27.93
2022-08-05T17:38:33.992Z,27.86
2022-08-05T17:41:01.652Z,27.73
2022-08-05T17:43:50.276Z,27.56
2022-08-05T17:46:15.471Z,27.51
2022-08-05T17:48:44.984Z,27.42
2022-08-05T17:51:14.467Z,27.38
2022-08-05T17:53:54.413Z,27.39
2022-08-05T17:56:22.786Z,27.42
2022-08-05T17:58:49.746Z,27.42
2022-08-05T18:01:18.373Z,27.35
2022-08-05T18:03:58.376Z,27.29
2022-08-05T18:06:31.143Z,27.27
2022-08-05T18:08:58.343Z,27.22
2022-08-05T18:11:33.221Z,27.23
2022-08-05T18:14:07.136Z,27.07
2022-08-05T18:16:35.529Z,26.88
2022-08-05T18:19:18.308Z,26.59
2022-08-05T18:22:07.213Z,26.41
2022-08-05T18:24:36.350Z,26.22
2022-08-05T18:27:03.004Z,26.10
2022-08-05T18:29:40.307Z,26.04
2022-08-05T18:32:13.094Z,25.93
2022-08-05T18:34:42.746Z,25.97
2022-08-05T18:37:12.304Z,25.80
2022-08-05T18:40:31.032Z,25.52
2022-08-05T18:42:26.252Z,25.03
2022-08-05T18:44:56.412Z,24.57
2022-08-05T18:47:26.476Z,24.41
2022-08-05T18:50:12.129Z,24.35
2022-08-05T18:52:41.760Z,24.41
2022-08-05T18:55:18.814Z,24.33
2022-08-05T18:57:53.090Z,24.34
2022-08-05T19:00:28.605Z,24.33
2022-08-05T19:02:56.426Z,24.30
2022-08-05T19:06:13.612Z,24.32
2022-08-05T19:08:13.572Z,24.39
2022-08-05T19:10:41.845Z,24.28
2022-08-05T19:13:12.395Z,24.12
2022-08-05T19:15:59.791Z,23.72
2022-08-05T19:18:30.248Z,23.62
2022-08-05T19:20:59.433Z,23.67
2022-08-05T19:24:06.934Z,23.72
2022-08-05T19:26:13.935Z,23.78
2022-08-05T19:28:42.180Z,23.54
2022-08-05T19:31:13.653Z,23.18
2022-08-05T19:33:48.147Z,23.06
2022-08-05T19:36:23.840Z,22.97
2022-08-05T19:38:51.024Z,22.95
2022-08-05T19:41:17.672Z,22.95
2022-08-05T19:44:05.863Z,22.85
2022-08-05T19:46:37.823Z,22.77
2022-08-05T19:49:07.762Z,22.94
2022-08-05T19:52:09.394Z,23.00
2022-08-05T19:54:31.548Z,23.00
2022-08-05T19:57:06.866Z,23.02
2022-08-05T19:59:55.889Z,23.02
2022-08-05T20:02:26.196Z,22.99
2022-08-05T20:04:54.777Z,22.89
2022-08-05T20:07:47.503Z,22.73
2022-08-05T20:10:13.224Z,22.90
2022-08-05T20:12:48.122Z,22.86
2022-08-05T20:15:48.734Z,22.89
2022-08-05T20:18:10.267Z,22.89
2022-08-05T20:20:52.124Z,22.73
2022-08-05T20:23:22.651Z,22.61
2022-08-05T20:25:49.274Z,22.22
2022-08-05T20:28:19.039Z,21.85
2022-08-05T20:30:45.738Z,21.63
2022-08-05T20:33:14.553Z,21.44
2022-08-05T20:35:45.534Z,21.49
2022-08-05T20:38:20.041Z,21.61
2022-08-05T20:40:55.528Z,21.69
2022-08-05T20:43:33.210Z,21.69
2022-08-05T20:46:18.220Z,21.59
2022-08-05T20:48:45.430Z,21.58
2022-08-05T20:51:17.695Z,21.46
2022-08-05T20:53:44.320Z,21.43
2022-08-05T20:56:28.043Z,21.21
2022-08-05T20:58:56.753Z,21.02
2022-08-05T21:01:37.316Z,20.71
2022-08-05T21:04:07.235Z,20.67
2022-08-05T21:06:37.214Z,20.65
2022-08-05T21:09:07.494Z,20.33
2022-08-05T21:12:08.890Z,20.23
2022-08-05T21:14:26.723Z,20.29
2022-08-05T21:16:53.461Z,20.22
2022-08-05T21:19:20.286Z,20.20
2022-08-05T21:21:50.563Z,20.16
2022-08-05T21:24:19.560Z,19.96
2022-08-05T21:26:58.539Z,19.87
2022-08-05T21:29:32.062Z,19.79
2022-08-05T21:32:00.253Z,19.42
2022-08-05T21:34:28.313Z,19.48
2022-08-05T21:36:58.275Z,19.29
2022-08-05T21:39:26.502Z,19.02
2022-08-05T21:42:01.705Z,18.78
2022-08-05T21:44:30.344Z,18.55
2022-08-05T21:46:58.189Z,18.44
2022-08-05T21:49:58.813Z,18.35
2022-08-05T21:52:21.487Z,18.18
2022-08-05T21:54:54.935Z,18.04
2022-08-05T21:57:31.633Z,18.07
2022-08-05T22:00:11.101Z,18.03
2022-08-05T22:02:42.495Z,18.02
2022-08-05T22:05:10.629Z,18.04
2022-08-05T22:07:54.265Z,17.96
2022-08-05T22:10:26.635Z,18.04
2022-08-05T22:12:59.156Z,17.97
2022-08-05T22:16:02.070Z,17.78
2022-08-05T22:18:25.705Z,17.82
2022-08-05T22:20:52.787Z,17.87
2022-08-05T22:24:01.693Z,17.92
2022-08-05T22:26:43.204Z,17.88
2022-08-05T22:29:17.470Z,17.79
2022-08-05T22:31:45.734Z,17.72
2022-08-05T22:34:25.725Z,17.72
2022-08-05T22:36:56.401Z,17.79
2022-08-05T22:39:28.593Z,17.70
2022-08-05T22:42:09.771Z,17.58
2022-08-05T22:44:39.952Z,17.48
2022-08-05T22:47:06.951Z,17.38
2022-08-05T22:50:18.410Z,17.27
2022-08-05T22:52:30.265Z,17.16
2022-08-05T22:55:01.688Z,17.07
2022-08-05T22:57:34.357Z,17.04
2022-08-05T23:00:08.107Z,17.06
2022-08-05T23:02:37.676Z,17.12
2022-08-05T23:05:14.715Z,17.14
2022-08-05T23:07:48.191Z,17.17
2022-08-05T23:10:16.493Z,17.22
2022-08-05T23:12:47.744Z,17.22
2022-08-05T23:15:18.521Z,17.17
2022-08-05T23:18:01.105Z,17.27
2022-08-05T23:20:29.842Z,17.39
2022-08-05T23:22:56.654Z,17.49
2022-08-05T23:25:51.364Z,17.38
2022-08-05T23:28:12.588Z,17.27
2022-08-05T23:30:43.910Z,17.27
2022-08-05T23:33:25.875Z,17.23
2022-08-05T23:36:06.501Z,17.28
2022-08-05T23:38:37.095Z,17.29
2022-08-05T23:41:03.766Z,17.23
2022-08-05T23:44:02.993Z,17.26
2022-08-05T23:46:20.262Z,17.25
2022-08-05T23:49:00.346Z,17.27
2022-08-05T23:51:56.263Z,17.21
2022-08-05T23:54:26.311Z,17.25
2022-08-05T23:57:03.950Z,17.32
